sensor_id;sensor_type;location;lat;lon;timestamp;pressure;altitude;pressure_sealevel;temperature;humidity
22647;BME280;11490;42.726;23.268;2023-02-23T00:00:14;95072.84;;;6.52;81.50
22647;BME280;11490;42.726;23.268;2023-02-23T00:02:55;95078.44;;;7.12;79.13
22647;BME280;11490;42.726;23.268;2023-02-23T00:05:24;95050.66;;;6.72;79.26
22647;BME280;11490;42.726;23.268;2023-02-23T00:07:50;95061.47;;;6.45;81.91
22647;BME280;11490;42.726;23.268;2023-02-23T00:10:16;95043.22;;;6.06;82.62
22647;BME280;11490;42.726;23.268;2023-02-23T00:12:43;95083.78;;;6.63;81.46
22647;BME280;11490;42.726;23.268;2023-02-23T00:15:09;95087.16;;;6.45;82.08
22647;BME280;11490;42.726;23.268;2023-02-23T00:17:35;95070.00;;;6.23;83.79
22647;BME280;11490;42.726;23.268;2023-02-23T00:20:06;95076.66;;;6.00;84.32
22647;BME280;11490;42.726;23.268;2023-02-23T00:22:32;95042.34;;;5.80;84.06
22647;BME280;11490;42.726;23.268;2023-02-23T00:24:58;95042.19;;;6.07;83.37
22647;BME280;11490;42.726;23.268;2023-02-23T00:27:24;95081.16;;;6.31;82.96
22647;BME280;11490;42.726;23.268;2023-02-23T00:29:50;95067.81;;;6.13;83.35
22647;BME280;11490;42.726;23.268;2023-02-23T00:32:16;95093.59;;;5.93;84.44
22647;BME280;11490;42.726;23.268;2023-02-23T00:34:45;95085.41;;;6.01;84.33
22647;BME280;11490;42.726;23.268;2023-02-23T00:37:13;95081.56;;;6.28;83.62
22647;BME280;11490;42.726;23.268;2023-02-23T00:39:39;95072.78;;;6.03;84.18
22647;BME280;11490;42.726;23.268;2023-02-23T00:42:04;95079.94;;;6.27;83.56
22647;BME280;11490;42.726;23.268;2023-02-23T00:44:31;95077.81;;;6.11;84.42
22647;BME280;11490;42.726;23.268;2023-02-23T00:46:58;95077.56;;;6.19;86.37
22647;BME280;11490;42.726;23.268;2023-02-23T00:49:24;95069.78;;;6.24;87.48
22647;BME280;11490;42.726;23.268;2023-02-23T00:51:50;95051.59;;;6.03;88.55
22647;BME280;11490;42.726;23.268;2023-02-23T00:54:20;95051.41;;;5.98;89.07
22647;BME280;11490;42.726;23.268;2023-02-23T00:56:46;95051.84;;;6.26;86.88
22647;BME280;11490;42.726;23.268;2023-02-23T00:59:13;95079.97;;;6.21;89.08
22647;BME280;11490;42.726;23.268;2023-02-23T01:01:39;95052.38;;;6.10;89.05
22647;BME280;11490;42.726;23.268;2023-02-23T01:04:09;95083.06;;;6.49;88.01
22647;BME280;11490;42.726;23.268;2023-02-23T01:06:35;95081.81;;;6.51;88.15
22647;BME280;11490;42.726;23.268;2023-02-23T01:09:05;95072.28;;;6.69;86.82
22647;BME280;11490;42.726;23.268;2023-02-23T01:11:33;95058.97;;;6.50;87.64
22647;BME280;11490;42.726;23.268;2023-02-23T01:13:59;95086.41;;;6.87;86.19
22647;BME280;11490;42.726;23.268;2023-02-23T01:16:28;95088.66;;;6.59;87.30
22647;BME280;11490;42.726;23.268;2023-02-23T01:18:55;95083.44;;;6.52;87.91
22647;BME280;11490;42.726;23.268;2023-02-23T01:21:23;95077.81;;;6.42;88.46
22647;BME280;11490;42.726;23.268;2023-02-23T01:23:50;95073.44;;;6.54;86.81
22647;BME280;11490;42.726;23.268;2023-02-23T01:26:25;95047.13;;;6.28;86.65
22647;BME280;11490;42.726;23.268;2023-02-23T01:29:00;95075.44;;;6.28;87.77
22647;BME280;11490;42.726;23.268;2023-02-23T01:31:27;95086.22;;;6.64;86.70
22647;BME280;11490;42.726;23.268;2023-02-23T01:33:53;95080.31;;;6.87;84.82
22647;BME280;11490;42.726;23.268;2023-02-23T01:36:19;95063.97;;;6.40;86.44
22647;BME280;11490;42.726;23.268;2023-02-23T01:38:45;95066.34;;;6.48;84.58
22647;BME280;11490;42.726;23.268;2023-02-23T01:41:10;95027.53;;;6.04;86.13
22647;BME280;11490;42.726;23.268;2023-02-23T01:43:57;95064.28;;;6.50;85.26
22647;BME280;11490;42.726;23.268;2023-02-23T01:46:23;95042.50;;;6.48;82.82
22647;BME280;11490;42.726;23.268;2023-02-23T01:48:49;95078.47;;;6.63;81.93
22647;BME280;11490;42.726;23.268;2023-02-23T01:51:18;95085.75;;;6.67;81.56
22647;BME280;11490;42.726;23.268;2023-02-23T01:53:55;95063.16;;;6.65;80.55
22647;BME280;11490;42.726;23.268;2023-02-23T01:56:29;95068.78;;;6.50;81.71
22647;BME280;11490;42.726;23.268;2023-02-23T01:58:58;95054.25;;;6.34;82.05
22647;BME280;11490;42.726;23.268;2023-02-23T02:01:27;95077.63;;;6.06;85.19
22647;BME280;11490;42.726;23.268;2023-02-23T02:04:04;95061.38;;;6.27;83.37
22647;BME280;11490;42.726;23.268;2023-02-23T02:06:31;95044.53;;;6.22;82.82
22647;BME280;11490;42.726;23.268;2023-02-23T02:09:01;95045.28;;;6.04;83.70
22647;BME280;11490;42.726;23.268;2023-02-23T02:11:32;95078.06;;;6.03;83.92
22647;BME280;11490;42.726;23.268;2023-02-23T02:16:39;95076.25;;;5.97;85.31
22647;BME280;11490;42.726;23.268;2023-02-23T02:22:35;95075.59;;;6.08;84.78
22647;BME280;11490;42.726;23.268;2023-02-23T02:25:23;95055.38;;;5.75;84.42
22647;BME280;11490;42.726;23.268;2023-02-23T02:39:27;95062.31;;;5.70;84.92
22647;BME280;11490;42.726;23.268;2023-02-23T02:44:47;95088.34;;;5.79;83.52
22647;BME280;11490;42.726;23.268;2023-02-23T02:47:37;95085.97;;;5.58;85.58
22647;BME280;11490;42.726;23.268;2023-02-23T02:50:10;95077.63;;;5.61;85.90
22647;BME280;11490;42.726;23.268;2023-02-23T02:53:08;95073.47;;;5.78;84.41
22647;BME280;11490;42.726;23.268;2023-02-23T02:55:37;95040.22;;;5.51;84.46
22647;BME280;11490;42.726;23.268;2023-02-23T02:58:05;95079.63;;;5.66;84.45
22647;BME280;11490;42.726;23.268;2023-02-23T03:00:46;95072.66;;;5.78;83.91
22647;BME280;11490;42.726;23.268;2023-02-23T03:03:43;95073.97;;;5.62;86.01
22647;BME280;11490;42.726;23.268;2023-02-23T03:06:35;95069.03;;;5.72;83.69
22647;BME280;11490;42.726;23.268;2023-02-23T03:09:35;95056.75;;;5.40;84.49
22647;BME280;11490;42.726;23.268;2023-02-23T03:18:37;95072.41;;;5.35;84.45
22647;BME280;11490;42.726;23.268;2023-02-23T03:21:34;95055.59;;;5.23;84.71
22647;BME280;11490;42.726;23.268;2023-02-23T03:27:26;95091.03;;;4.95;86.49
22647;BME280;11490;42.726;23.268;2023-02-23T03:30:23;95092.28;;;4.86;87.33
22647;BME280;11490;42.726;23.268;2023-02-23T03:33:17;95060.75;;;4.65;87.72
22647;BME280;11490;42.726;23.268;2023-02-23T03:36:25;95047.34;;;4.73;87.05
22647;BME280;11490;42.726;23.268;2023-02-23T03:39:20;95089.41;;;5.01;85.59
22647;BME280;11490;42.726;23.268;2023-02-23T03:42:10;95088.16;;;5.17;85.67
22647;BME280;11490;42.726;23.268;2023-02-23T03:44:56;95101.94;;;5.32;83.73
22647;BME280;11490;42.726;23.268;2023-02-23T03:47:42;95092.66;;;4.90;86.14
22647;BME280;11490;42.726;23.268;2023-02-23T03:50:35;95075.38;;;4.81;84.62
22647;BME280;11490;42.726;23.268;2023-02-23T03:53:28;95105.28;;;4.94;86.02
22647;BME280;11490;42.726;23.268;2023-02-23T03:56:16;95110.97;;;4.78;85.91
22647;BME280;11490;42.726;23.268;2023-02-23T03:59:04;95078.47;;;4.71;86.54
22647;BME280;11490;42.726;23.268;2023-02-23T04:01:51;95110.53;;;5.08;84.82
22647;BME280;11490;42.726;23.268;2023-02-23T04:04:37;95103.84;;;4.59;87.54
22647;BME280;11490;42.726;23.268;2023-02-23T04:07:22;95090.25;;;4.49;88.67
22647;BME280;11490;42.726;23.268;2023-02-23T04:10:07;95109.75;;;4.48;89.25
22647;BME280;11490;42.726;23.268;2023-02-23T04:13:02;95113.78;;;4.44;90.10
22647;BME280;11490;42.726;23.268;2023-02-23T04:18:29;95111.56;;;4.67;88.87
22647;BME280;11490;42.726;23.268;2023-02-23T04:20:56;95080.91;;;4.40;88.85
22647;BME280;11490;42.726;23.268;2023-02-23T04:23:22;95105.28;;;4.61;90.00
22647;BME280;11490;42.726;23.268;2023-02-23T04:25:48;95104.84;;;4.97;87.10
22647;BME280;11490;42.726;23.268;2023-02-23T04:28:18;95083.34;;;4.48;89.08
22647;BME280;11490;42.726;23.268;2023-02-23T04:30:44;95091.06;;;4.56;87.67
22647;BME280;11490;42.726;23.268;2023-02-23T04:33:09;95090.22;;;4.75;87.21
22647;BME280;11490;42.726;23.268;2023-02-23T04:35:35;95096.94;;;4.91;86.05
22647;BME280;11490;42.726;23.268;2023-02-23T04:38:01;95100.56;;;4.96;84.68
22647;BME280;11490;42.726;23.268;2023-02-23T04:40:27;95106.28;;;4.93;83.77
22647;BME280;11490;42.726;23.268;2023-02-23T04:42:53;95076.84;;;4.70;84.84
22647;BME280;11490;42.726;23.268;2023-02-23T04:45:20;95082.50;;;4.74;83.18
22647;BME280;11490;42.726;23.268;2023-02-23T04:47:46;95107.31;;;4.79;84.05
22647;BME280;11490;42.726;23.268;2023-02-23T04:50:12;95076.63;;;4.25;87.07
22647;BME280;11490;42.726;23.268;2023-02-23T04:52:38;95072.75;;;4.35;87.78
22647;BME280;11490;42.726;23.268;2023-02-23T04:55:05;95105.66;;;4.65;85.84
22647;BME280;11490;42.726;23.268;2023-02-23T04:57:31;95095.91;;;4.19;87.95
22647;BME280;11490;42.726;23.268;2023-02-23T04:59:57;95061.00;;;4.24;87.31
22647;BME280;11490;42.726;23.268;2023-02-23T05:02:22;95086.56;;;4.43;86.07
22647;BME280;11490;42.726;23.268;2023-02-23T05:04:48;95071.56;;;4.24;87.72
22647;BME280;11490;42.726;23.268;2023-02-23T05:07:14;95098.78;;;4.38;86.15
22647;BME280;11490;42.726;23.268;2023-02-23T05:09:39;95091.44;;;4.26;87.54
22647;BME280;11490;42.726;23.268;2023-02-23T05:12:04;95081.06;;;4.12;88.15
22647;BME280;11490;42.726;23.268;2023-02-23T05:14:30;95107.69;;;4.37;87.13
22647;BME280;11490;42.726;23.268;2023-02-23T05:16:55;95089.78;;;4.12;87.17
22647;BME280;11490;42.726;23.268;2023-02-23T05:19:21;95117.38;;;4.03;89.60
22647;BME280;11490;42.726;23.268;2023-02-23T05:21:46;95103.16;;;3.91;90.84
22647;BME280;11490;42.726;23.268;2023-02-23T05:24:12;95103.94;;;3.85;91.30
22647;BME280;11490;42.726;23.268;2023-02-23T05:26:37;95084.56;;;3.52;91.94
22647;BME280;11490;42.726;23.268;2023-02-23T05:29:02;95104.81;;;4.18;90.08
22647;BME280;11490;42.726;23.268;2023-02-23T05:31:28;95120.72;;;4.45;87.39
22647;BME280;11490;42.726;23.268;2023-02-23T05:33:53;95094.06;;;4.26;86.48
22647;BME280;11490;42.726;23.268;2023-02-23T05:36:20;95124.28;;;4.11;89.46
22647;BME280;11490;42.726;23.268;2023-02-23T05:38:47;95088.59;;;4.28;86.79
22647;BME280;11490;42.726;23.268;2023-02-23T05:41:19;95114.50;;;3.85;89.10
22647;BME280;11490;42.726;23.268;2023-02-23T05:43:45;95124.22;;;3.78;90.71
22647;BME280;11490;42.726;23.268;2023-02-23T05:46:14;95145.75;;;3.88;91.94
22647;BME280;11490;42.726;23.268;2023-02-23T05:48:41;95122.09;;;4.28;89.31
22647;BME280;11490;42.726;23.268;2023-02-23T05:51:10;95142.88;;;4.63;87.59
22647;BME280;11490;42.726;23.268;2023-02-23T05:53:36;95140.59;;;4.34;88.79
22647;BME280;11490;42.726;23.268;2023-02-23T05:56:03;95131.06;;;4.53;88.18
22647;BME280;11490;42.726;23.268;2023-02-23T05:58:29;95123.97;;;4.60;86.34
22647;BME280;11490;42.726;23.268;2023-02-23T06:00:55;95137.59;;;4.70;86.36
22647;BME280;11490;42.726;23.268;2023-02-23T06:03:21;95165.00;;;4.82;85.98
22647;BME280;11490;42.726;23.268;2023-02-23T06:05:54;95117.88;;;4.53;87.37
22647;BME280;11490;42.726;23.268;2023-02-23T06:08:22;95161.78;;;4.93;87.01
22647;BME280;11490;42.726;23.268;2023-02-23T06:10:49;95163.19;;;5.09;86.52
22647;BME280;11490;42.726;23.268;2023-02-23T06:13:14;95134.13;;;5.02;85.36
22647;BME280;11490;42.726;23.268;2023-02-23T06:15:40;95162.16;;;5.17;85.25
22647;BME280;11490;42.726;23.268;2023-02-23T06:18:06;95152.22;;;5.19;86.17
22647;BME280;11490;42.726;23.268;2023-02-23T06:20:33;95147.50;;;5.34;85.82
22647;BME280;11490;42.726;23.268;2023-02-23T06:22:58;95155.16;;;5.62;85.19
22647;BME280;11490;42.726;23.268;2023-02-23T06:25:24;95158.34;;;5.90;85.03
22647;BME280;11490;42.726;23.268;2023-02-23T06:27:49;95147.09;;;6.39;83.71
22647;BME280;11490;42.726;23.268;2023-02-23T06:30:15;95156.78;;;7.08;80.78
22647;BME280;11490;42.726;23.268;2023-02-23T06:32:40;95159.94;;;7.66;77.56
22647;BME280;11490;42.726;23.268;2023-02-23T06:35:06;95186.63;;;8.86;75.03
22647;BME280;11490;42.726;23.268;2023-02-23T06:37:32;95183.59;;;9.71;71.07
22647;BME280;11490;42.726;23.268;2023-02-23T06:39:58;95206.81;;;10.62;67.95
22647;BME280;11490;42.726;23.268;2023-02-23T06:42:23;95183.66;;;11.24;64.58
22647;BME280;11490;42.726;23.268;2023-02-23T06:44:49;95172.16;;;11.90;62.11
22647;BME280;11490;42.726;23.268;2023-02-23T06:47:15;95189.81;;;12.79;59.66
22647;BME280;11490;42.726;23.268;2023-02-23T06:49:40;95205.25;;;13.52;57.16
22647;BME280;11490;42.726;23.268;2023-02-23T06:52:09;95180.00;;;13.80;55.38
22647;BME280;11490;42.726;23.268;2023-02-23T06:54:35;95204.94;;;14.22;53.74
22647;BME280;11490;42.726;23.268;2023-02-23T06:57:02;95188.91;;;13.85;54.58
22647;BME280;11490;42.726;23.268;2023-02-23T06:59:28;95174.94;;;14.31;53.69
22647;BME280;11490;42.726;23.268;2023-02-23T07:01:54;95198.22;;;14.82;52.70
22647;BME280;11490;42.726;23.268;2023-02-23T07:04:20;95181.16;;;13.94;53.23
22647;BME280;11490;42.726;23.268;2023-02-23T07:06:45;95165.94;;;14.05;53.64
22647;BME280;11490;42.726;23.268;2023-02-23T07:09:11;95178.22;;;14.43;52.89
22647;BME280;11490;42.726;23.268;2023-02-23T07:11:36;95206.81;;;14.74;52.40
22647;BME280;11490;42.726;23.268;2023-02-23T07:14:03;95190.94;;;14.68;52.96
22647;BME280;11490;42.726;23.268;2023-02-23T07:16:28;95186.72;;;14.92;52.90
22647;BME280;11490;42.726;23.268;2023-02-23T07:18:54;95194.53;;;15.03;51.42
22647;BME280;11490;42.726;23.268;2023-02-23T07:21:20;95204.25;;;14.42;53.49
22647;BME280;11490;42.726;23.268;2023-02-23T07:23:46;95193.50;;;13.58;55.29
22647;BME280;11490;42.726;23.268;2023-02-23T07:26:17;95192.72;;;10.78;63.94
22647;BME280;11490;42.726;23.268;2023-02-23T07:28:43;95194.13;;;10.80;65.54
22647;BME280;11490;42.726;23.268;2023-02-23T07:31:09;95182.53;;;9.95;69.49
22647;BME280;11490;42.726;23.268;2023-02-23T07:33:34;95169.44;;;9.93;69.45
22647;BME280;11490;42.726;23.268;2023-02-23T07:36:00;95145.13;;;9.90;69.36
22647;BME280;11490;42.726;23.268;2023-02-23T07:38:25;95149.00;;;8.59;75.14
22647;BME280;11490;42.726;23.268;2023-02-23T07:40:51;95176.44;;;9.36;73.08
22647;BME280;11490;42.726;23.268;2023-02-23T07:43:16;95159.66;;;9.59;71.60
22647;BME280;11490;42.726;23.268;2023-02-23T07:45:42;95171.91;;;9.72;71.49
22647;BME280;11490;42.726;23.268;2023-02-23T07:48:08;95181.69;;;8.90;74.37
22647;BME280;11490;42.726;23.268;2023-02-23T07:50:33;95179.19;;;9.18;75.12
22647;BME280;11490;42.726;23.268;2023-02-23T07:53:00;95151.63;;;9.01;74.84
22647;BME280;11490;42.726;23.268;2023-02-23T07:55:25;95136.84;;;9.28;74.07
22647;BME280;11490;42.726;23.268;2023-02-23T07:57:51;95159.75;;;9.52;73.86
22647;BME280;11490;42.726;23.268;2023-02-23T08:00:16;95133.59;;;9.49;73.50
22647;BME280;11490;42.726;23.268;2023-02-23T08:02:42;95151.19;;;9.74;72.90
22647;BME280;11490;42.726;23.268;2023-02-23T08:05:07;95154.97;;;9.78;72.83
22647;BME280;11490;42.726;23.268;2023-02-23T08:07:33;95137.72;;;9.80;71.48
22647;BME280;11490;42.726;23.268;2023-02-23T08:09:59;95158.13;;;9.75;72.20
22647;BME280;11490;42.726;23.268;2023-02-23T08:12:24;95178.66;;;10.37;71.10
22647;BME280;11490;42.726;23.268;2023-02-23T08:14:50;95146.38;;;10.51;70.42
22647;BME280;11490;42.726;23.268;2023-02-23T08:17:15;95153.44;;;10.73;68.99
22647;BME280;11490;42.726;23.268;2023-02-23T08:19:40;95168.81;;;10.55;69.40
22647;BME280;11490;42.726;23.268;2023-02-23T08:22:06;95152.78;;;10.38;70.17
22647;BME280;11490;42.726;23.268;2023-02-23T08:24:32;95141.84;;;10.51;70.00
22647;BME280;11490;42.726;23.268;2023-02-23T08:26:58;95161.41;;;10.57;70.31
22647;BME280;11490;42.726;23.268;2023-02-23T08:29:23;95160.25;;;10.13;71.50
22647;BME280;11490;42.726;23.268;2023-02-23T08:31:49;95168.44;;;11.25;69.33
22647;BME280;11490;42.726;23.268;2023-02-23T08:34:16;95177.28;;;12.14;64.97
22647;BME280;11490;42.726;23.268;2023-02-23T08:36:42;95135.06;;;13.18;61.76
22647;BME280;11490;42.726;23.268;2023-02-23T08:39:10;95155.63;;;14.34;57.05
22647;BME280;11490;42.726;23.268;2023-02-23T08:41:36;95175.75;;;15.09;54.56
22647;BME280;11490;42.726;23.268;2023-02-23T08:44:02;95152.91;;;15.92;52.12
22647;BME280;11490;42.726;23.268;2023-02-23T08:46:27;95159.06;;;16.08;50.31
22647;BME280;11490;42.726;23.268;2023-02-23T08:48:54;95171.50;;;15.63;52.30
22647;BME280;11490;42.726;23.268;2023-02-23T08:51:19;95171.09;;;16.41;50.16
22647;BME280;11490;42.726;23.268;2023-02-23T08:53:45;95167.16;;;17.26;47.81
22647;BME280;11490;42.726;23.268;2023-02-23T08:56:10;95170.31;;;16.20;49.06
22647;BME280;11490;42.726;23.268;2023-02-23T08:58:37;95179.47;;;16.19;49.06
22647;BME280;11490;42.726;23.268;2023-02-23T09:01:04;95175.19;;;16.13;49.42
22647;BME280;11490;42.726;23.268;2023-02-23T09:03:30;95160.44;;;15.29;51.74
22647;BME280;11490;42.726;23.268;2023-02-23T09:05:57;95176.22;;;16.27;49.68
22647;BME280;11490;42.726;23.268;2023-02-23T09:08:23;95164.63;;;17.01;48.35
22647;BME280;11490;42.726;23.268;2023-02-23T09:10:49;95165.97;;;17.38;47.32
22647;BME280;11490;42.726;23.268;2023-02-23T09:13:14;95161.72;;;17.65;46.63
22647;BME280;11490;42.726;23.268;2023-02-23T09:15:41;95171.03;;;17.83;45.70
22647;BME280;11490;42.726;23.268;2023-02-23T09:18:10;95166.03;;;17.33;45.81
22647;BME280;11490;42.726;23.268;2023-02-23T09:20:40;95166.50;;;16.41;49.20
22647;BME280;11490;42.726;23.268;2023-02-23T09:23:05;95159.13;;;17.16;46.19
22647;BME280;11490;42.726;23.268;2023-02-23T09:25:31;95158.34;;;17.50;45.31
22647;BME280;11490;42.726;23.268;2023-02-23T09:27:56;95160.00;;;17.46;45.68
22647;BME280;11490;42.726;23.268;2023-02-23T09:30:24;95146.63;;;17.69;45.13
22647;BME280;11490;42.726;23.268;2023-02-23T09:32:51;95173.25;;;18.05;43.61
22647;BME280;11490;42.726;23.268;2023-02-23T09:35:20;95175.00;;;17.62;45.54
22647;BME280;11490;42.726;23.268;2023-02-23T09:37:47;95173.38;;;16.73;45.84
22647;BME280;11490;42.726;23.268;2023-02-23T09:40:15;95168.19;;;16.12;48.58
22647;BME280;11490;42.726;23.268;2023-02-23T09:42:56;95167.09;;;16.92;47.14
22647;BME280;11490;42.726;23.268;2023-02-23T09:45:41;95165.50;;;17.69;45.38
22647;BME280;11490;42.726;23.268;2023-02-23T09:48:14;95152.63;;;17.90;45.15
22647;BME280;11490;42.726;23.268;2023-02-23T09:50:44;95158.22;;;18.23;43.80
22647;BME280;11490;42.726;23.268;2023-02-23T09:55:55;95156.44;;;18.13;44.53
22647;BME280;11490;42.726;23.268;2023-02-23T09:58:30;95140.91;;;18.00;43.04
22647;BME280;11490;42.726;23.268;2023-02-23T10:06:18;95136.31;;;16.44;48.94
22647;BME280;11490;42.726;23.268;2023-02-23T10:08:56;95128.34;;;17.22;46.45
22647;BME280;11490;42.726;23.268;2023-02-23T10:11:52;95125.59;;;17.95;44.40
22647;BME280;11490;42.726;23.268;2023-02-23T10:17:19;95147.44;;;18.23;42.41
22647;BME280;11490;42.726;23.268;2023-02-23T10:22:54;95131.78;;;16.94;44.13
22647;BME280;11490;42.726;23.268;2023-02-23T10:25:27;95115.56;;;17.72;43.71
22647;BME280;11490;42.726;23.268;2023-02-23T10:27:56;95111.88;;;17.63;43.23
22647;BME280;11490;42.726;23.268;2023-02-23T10:30:28;95124.44;;;16.55;45.13
22647;BME280;11490;42.726;23.268;2023-02-23T10:33:09;95131.84;;;17.62;44.58
22647;BME280;11490;42.726;23.268;2023-02-23T10:35:38;95126.03;;;17.79;43.92
22647;BME280;11490;42.726;23.268;2023-02-23T10:38:03;95123.66;;;17.72;44.26
22647;BME280;11490;42.726;23.268;2023-02-23T10:40:31;95112.34;;;17.02;45.11
22647;BME280;11490;42.726;23.268;2023-02-23T10:42:59;95110.78;;;17.93;44.91
22647;BME280;11490;42.726;23.268;2023-02-23T10:45:26;95097.91;;;18.32;43.82
22647;BME280;11490;42.726;23.268;2023-02-23T10:48:07;95088.72;;;18.52;42.41
22647;BME280;11490;42.726;23.268;2023-02-23T10:50:36;95090.22;;;18.21;42.08
22647;BME280;11490;42.726;23.268;2023-02-23T10:55:35;95093.44;;;17.99;42.65
22647;BME280;11490;42.726;23.268;2023-02-23T10:58:11;95082.97;;;17.68;45.99
22647;BME280;11490;42.726;23.268;2023-02-23T11:00:50;95058.69;;;17.68;44.90
22647;BME280;11490;42.726;23.268;2023-02-23T11:03:22;95091.34;;;17.91;43.51
22647;BME280;11490;42.726;23.268;2023-02-23T11:05:50;95074.59;;;18.18;42.93
22647;BME280;11490;42.726;23.268;2023-02-23T11:13:47;95080.75;;;17.99;43.51
22647;BME280;11490;42.726;23.268;2023-02-23T11:16:28;95072.97;;;17.69;43.16
22647;BME280;11490;42.726;23.268;2023-02-23T11:18:56;95072.50;;;17.62;43.89
22647;BME280;11490;42.726;23.268;2023-02-23T11:21:32;95069.75;;;17.67;44.07
22647;BME280;11490;42.726;23.268;2023-02-23T11:24:05;95064.44;;;17.57;44.81
22647;BME280;11490;42.726;23.268;2023-02-23T11:26:40;95066.63;;;17.55;44.29
22647;BME280;11490;42.726;23.268;2023-02-23T11:29:29;95046.75;;;17.46;44.40
22647;BME280;11490;42.726;23.268;2023-02-23T11:32:02;95050.53;;;17.45;44.67
22647;BME280;11490;42.726;23.268;2023-02-23T11:34:34;95055.81;;;17.55;44.34
22647;BME280;11490;42.726;23.268;2023-02-23T11:39:33;95047.88;;;17.40;44.14
22647;BME280;11490;42.726;23.268;2023-02-23T11:42:15;95045.13;;;17.16;44.61
22647;BME280;11490;42.726;23.268;2023-02-23T11:44:42;95039.59;;;17.02;45.48
22647;BME280;11490;42.726;23.268;2023-02-23T11:47:17;95041.44;;;16.68;45.48
22647;BME280;11490;42.726;23.268;2023-02-23T11:49:45;95034.88;;;16.84;45.73
22647;BME280;11490;42.726;23.268;2023-02-23T11:52:18;95025.88;;;16.99;46.12
22647;BME280;11490;42.726;23.268;2023-02-23T11:54:53;95018.59;;;17.28;46.15
22647;BME280;11490;42.726;23.268;2023-02-23T11:57:26;95027.34;;;17.44;45.17
22647;BME280;11490;42.726;23.268;2023-02-23T11:59:53;95032.84;;;17.34;44.12
22647;BME280;11490;42.726;23.268;2023-02-23T12:02:21;95029.63;;;16.98;44.44
22647;BME280;11490;42.726;23.268;2023-02-23T12:04:48;95005.09;;;16.65;45.00
22647;BME280;11490;42.726;23.268;2023-02-23T12:10:12;95008.66;;;16.55;45.25
22647;BME280;11490;42.726;23.268;2023-02-23T12:12:51;95017.69;;;16.75;45.38
22647;BME280;11490;42.726;23.268;2023-02-23T12:15:58;95022.44;;;16.88;44.96
22647;BME280;11490;42.726;23.268;2023-02-23T12:20:53;95000.47;;;17.05;44.77
22647;BME280;11490;42.726;23.268;2023-02-23T12:23:24;94997.97;;;17.13;44.77
22647;BME280;11490;42.726;23.268;2023-02-23T12:25:54;95022.94;;;16.95;45.28
22647;BME280;11490;42.726;23.268;2023-02-23T12:28:30;95011.38;;;16.89;45.13
22647;BME280;11490;42.726;23.268;2023-02-23T12:39:28;95004.16;;;16.85;45.14
22647;BME280;11490;42.726;23.268;2023-02-23T12:42:09;95001.19;;;17.15;45.28
22647;BME280;11490;42.726;23.268;2023-02-23T12:44:45;95010.56;;;17.23;44.29
22647;BME280;11490;42.726;23.268;2023-02-23T12:50:17;95000.69;;;17.13;44.52
22647;BME280;11490;42.726;23.268;2023-02-23T12:52:52;94992.72;;;16.98;44.82
22647;BME280;11490;42.726;23.268;2023-02-23T12:55:29;94977.22;;;16.85;44.60
22647;BME280;11490;42.726;23.268;2023-02-23T12:58:05;94956.03;;;16.73;43.77
22647;BME280;11490;42.726;23.268;2023-02-23T13:00:43;94981.41;;;17.01;43.68
22647;BME280;11490;42.726;23.268;2023-02-23T13:05:54;94986.38;;;16.84;44.41
22647;BME280;11490;42.726;23.268;2023-02-23T13:09:00;94991.97;;;17.21;44.08
22647;BME280;11490;42.726;23.268;2023-02-23T13:14:35;94987.66;;;17.20;42.98
22647;BME280;11490;42.726;23.268;2023-02-23T13:17:35;94996.47;;;17.02;43.69
22647;BME280;11490;42.726;23.268;2023-02-23T13:22:44;94988.66;;;17.01;44.35
22647;BME280;11490;42.726;23.268;2023-02-23T13:28:03;94967.94;;;16.96;44.18
22647;BME280;11490;42.726;23.268;2023-02-23T13:30:30;94958.44;;;17.04;44.64
22647;BME280;11490;42.726;23.268;2023-02-23T13:32:58;94970.38;;;16.98;44.28
22647;BME280;11490;42.726;23.268;2023-02-23T13:35:28;94993.19;;;17.05;43.96
22647;BME280;11490;42.726;23.268;2023-02-23T13:38:20;94977.94;;;16.96;44.97
22647;BME280;11490;42.726;23.268;2023-02-23T13:41:06;94968.94;;;16.76;45.49
22647;BME280;11490;42.726;23.268;2023-02-23T13:49:01;94979.63;;;16.86;45.56
22647;BME280;11490;42.726;23.268;2023-02-23T13:51:59;94988.16;;;16.99;45.35
22647;BME280;11490;42.726;23.268;2023-02-23T13:54:33;94985.91;;;16.77;45.18
22647;BME280;11490;42.726;23.268;2023-02-23T13:57:01;94974.84;;;16.39;45.46
22647;BME280;11490;42.726;23.268;2023-02-23T13:59:29;94956.53;;;16.41;45.39
22647;BME280;11490;42.726;23.268;2023-02-23T14:02:18;94969.88;;;16.57;45.22
22647;BME280;11490;42.726;23.268;2023-02-23T14:04:48;94992.38;;;16.76;45.17
22647;BME280;11490;42.726;23.268;2023-02-23T14:07:22;94971.09;;;16.74;45.41
22647;BME280;11490;42.726;23.268;2023-02-23T14:10:08;94969.28;;;16.65;45.35
22647;BME280;11490;42.726;23.268;2023-02-23T14:12:39;94988.66;;;16.72;45.54
22647;BME280;11490;42.726;23.268;2023-02-23T14:17:59;94991.00;;;16.78;44.97
22647;BME280;11490;42.726;23.268;2023-02-23T14:20:35;94989.34;;;16.82;45.13
22647;BME280;11490;42.726;23.268;2023-02-23T14:25:49;94986.06;;;16.90;49.09
22647;BME280;11490;42.726;23.268;2023-02-23T14:28:39;94962.28;;;16.25;50.91
22647;BME280;11490;42.726;23.268;2023-02-23T14:33:57;95000.75;;;15.71;54.73
22647;BME280;11490;42.726;23.268;2023-02-23T14:41:23;94997.81;;;15.52;55.79
22647;BME280;11490;42.726;23.268;2023-02-23T14:44:38;94976.91;;;15.29;56.51
22647;BME280;11490;42.726;23.268;2023-02-23T14:46:52;94992.00;;;15.05;57.42
22647;BME280;11490;42.726;23.268;2023-02-23T14:49:20;95002.75;;;14.94;58.11
22647;BME280;11490;42.726;23.268;2023-02-23T14:51:47;94995.78;;;14.93;58.59
22647;BME280;11490;42.726;23.268;2023-02-23T14:54:36;94991.47;;;14.97;58.45
22647;BME280;11490;42.726;23.268;2023-02-23T14:57:05;94990.94;;;14.90;58.92
22647;BME280;11490;42.726;23.268;2023-02-23T14:59:39;94990.41;;;14.98;58.92